Time;durP1;ratioP1;P1;durP2;ratioP2;P2;SDS_P1;SDS_P2;PMS_P1;PMS_P2;Temp;Humidity;BMP_temperature;BMP_pressure;BME280_temperature;BME280_humidity;BME280_pressure;Samples;Min_cycle;Max_cycle;Signal;HPM_P1;HPM_P2
2022/09/27 00:00:57;;;;;;;;;;;10.00;99.90;;;;;;5050204;28;19963;-70
2022/09/27 00:03:23;;;;;;;;;;;9.90;99.90;;;;;;5068485;28;20294;-70
2022/09/27 00:05:48;;;;;;;;;;;9.90;99.90;;;;;;5046276;28;19925;-70
2022/09/27 00:08:13;;;;;;;;;;;9.90;99.90;;;;;;5037976;28;20011;-70
2022/09/27 00:10:39;;;;;;;;;;;9.90;99.90;;;;;;5048633;28;19924;-70
2022/09/27 00:13:04;;;;;;;;;;;9.90;99.90;;;;;;5048600;28;19920;-70
2022/09/27 00:15:30;;;;;;;;;;;9.90;99.90;;;;;;5034570;28;20275;-70
2022/09/27 00:17:55;;;;;;;;;;;9.80;99.90;;;;;;5052238;28;19920;-70
2022/09/27 00:20:21;;;;;;;;;;;9.80;99.90;;;;;;5051720;28;19971;-70
2022/09/27 00:22:47;;;;;;;;;;;9.80;99.90;;;;;;5048899;28;19920;-70
2022/09/27 00:25:12;;;;;;;;;;;9.80;99.90;;;;;;5050420;28;19928;-70
2022/09/27 00:27:38;;;;;;;;;;;9.70;99.90;;;;;;5051118;28;19924;-70
2022/09/27 00:30:03;;;;;;;;;;;9.70;99.90;;;;;;5049741;28;19920;-70
2022/09/27 00:32:29;;;;;;;;;;;9.70;99.90;;;;;;5051489;28;20267;-70
2022/09/27 00:34:54;;;;;;;;;;;9.70;99.90;;;;;;5051462;28;20003;-69
2022/09/27 00:37:20;;;;;;;;;;;9.80;99.90;;;;;;5050603;28;19947;-70
2022/09/27 00:39:45;;;;;;;;;;;9.80;99.90;;;;;;5049363;28;19924;-70
2022/09/27 00:42:11;;;;;;;;;;;9.80;99.90;;;;;;5032522;28;19920;-70
2022/09/27 00:44:40;;;;;;;;;;;9.90;99.90;;;;;;5050986;28;19964;-70
2022/09/27 00:47:21;;;;;;;;;;;9.90;99.90;;;;;;5062085;28;19925;-70
2022/09/27 00:49:46;;;;;;;;;;;9.90;99.90;;;;;;5048378;28;20336;-70
2022/09/27 00:52:28;;;;;;;;;;;9.90;99.90;;;;;;5049580;28;19925;-70
2022/09/27 00:54:58;;;;;;;;;;;9.90;99.90;;;;;;5049086;28;19921;-70
2022/09/27 00:57:24;;;;;;;;;;;9.90;99.90;;;;;;5049690;28;19921;-70
2022/09/27 00:59:52;;;;;;;;;;;9.80;99.90;;;;;;5049882;28;19929;-70
2022/09/27 01:02:18;;;;;;;;;;;9.90;99.90;;;;;;5051114;28;19920;-70
2022/09/27 01:04:44;;;;;;;;;;;9.80;99.90;;;;;;5049223;28;19929;-70
2022/09/27 01:07:10;;;;;;;;;;;9.90;99.90;;;;;;5050231;28;19952;-70
2022/09/27 01:09:35;;;;;;;;;;;9.80;99.90;;;;;;5040528;28;19921;-70
2022/09/27 01:12:09;;;;;;;;;;;9.80;99.90;;;;;;5046386;28;19956;-70
2022/09/27 01:14:54;;;;;;;;;;;9.80;99.90;;;;;;5050040;28;20375;-71
2022/09/27 01:17:26;;;;;;;;;;;9.70;99.90;;;;;;5051161;28;20710;-70
2022/09/27 01:20:14;;;;;;;;;;;9.70;99.90;;;;;;5047080;28;19979;-70
2022/09/27 01:22:50;;;;;;;;;;;9.70;99.90;;;;;;5047740;28;19921;-70
2022/09/27 01:25:29;;;;;;;;;;;9.60;99.90;;;;;;5050127;28;19921;-70
2022/09/27 01:27:54;;;;;;;;;;;9.60;99.90;;;;;;5051050;28;19921;-70
2022/09/27 01:30:22;;;;;;;;;;;9.60;99.90;;;;;;5051898;28;19975;-70
2022/09/27 01:32:54;;;;;;;;;;;9.50;99.90;;;;;;5031032;28;19926;-70
2022/09/27 01:35:28;;;;;;;;;;;9.50;99.90;;;;;;5042097;28;19986;-70
2022/09/27 01:38:00;;;;;;;;;;;9.60;99.90;;;;;;5014032;28;19925;-70
2022/09/27 01:40:32;;;;;;;;;;;9.60;99.90;;;;;;5041458;28;19925;-69
2022/09/27 01:43:03;;;;;;;;;;;9.60;99.90;;;;;;5047893;28;20032;-69
2022/09/27 01:45:36;;;;;;;;;;;9.70;99.90;;;;;;5050286;28;19927;-69
2022/09/27 01:48:03;;;;;;;;;;;9.70;99.90;;;;;;5050430;28;19924;-69
2022/09/27 01:50:36;;;;;;;;;;;9.80;99.90;;;;;;5045283;28;19920;-69
2022/09/27 01:53:03;;;;;;;;;;;9.80;99.90;;;;;;5045666;28;19936;-70
2022/09/27 01:55:31;;;;;;;;;;;9.80;99.90;;;;;;5047504;28;19932;-69
2022/09/27 01:57:58;;;;;;;;;;;9.80;99.90;;;;;;5050291;28;19955;-70
2022/09/27 02:00:24;;;;;;;;;;;9.80;99.90;;;;;;5033180;28;20403;-70
2022/09/27 02:03:02;;;;;;;;;;;9.80;99.90;;;;;;5048388;28;20011;-70
2022/09/27 02:05:30;;;;;;;;;;;9.80;99.90;;;;;;5049633;28;20340;-70
2022/09/27 02:07:57;;;;;;;;;;;9.80;99.90;;;;;;5050790;28;20256;-70
2022/09/27 02:10:24;;;;;;;;;;;9.80;99.90;;;;;;5034975;28;19975;-70
2022/09/27 02:12:57;;;;;;;;;;;9.90;99.90;;;;;;5030463;28;19929;-70
2022/09/27 02:15:23;;;;;;;;;;;9.90;99.90;;;;;;5056587;28;19971;-71
2022/09/27 02:17:55;;;;;;;;;;;9.90;99.90;;;;;;5047905;28;19924;-70
2022/09/27 02:20:20;;;;;;;;;;;9.90;99.90;;;;;;5048259;28;20325;-71
2022/09/27 02:22:52;;;;;;;;;;;9.80;99.90;;;;;;5052309;28;19921;-71
2022/09/27 02:25:27;;;;;;;;;;;9.80;99.90;;;;;;5051708;28;19921;-71
2022/09/27 02:27:53;;;;;;;;;;;9.80;99.90;;;;;;5036604;28;19927;-71
2022/09/27 02:30:18;;;;;;;;;;;9.80;99.90;;;;;;5051909;28;20302;-71
2022/09/27 02:32:44;;;;;;;;;;;9.80;99.90;;;;;;5053206;28;19936;-71
2022/09/27 02:35:19;;;;;;;;;;;9.70;99.90;;;;;;5053442;28;20277;-70
2022/09/27 02:37:44;;;;;;;;;;;9.80;99.90;;;;;;5054228;28;20476;-70
2022/09/27 02:40:10;;;;;;;;;;;9.70;99.90;;;;;;5053481;28;19933;-70
2022/09/27 02:42:36;;;;;;;;;;;9.70;99.90;;;;;;5052558;28;19931;-70
2022/09/27 02:45:04;;;;;;;;;;;9.70;99.90;;;;;;5043495;28;19975;-70
2022/09/27 02:47:39;;;;;;;;;;;9.70;99.90;;;;;;5048674;28;20395;-70
2022/09/27 02:50:07;;;;;;;;;;;9.70;99.90;;;;;;5053563;28;19925;-70
2022/09/27 02:52:45;;;;;;;;;;;9.70;99.90;;;;;;5053204;28;19968;-70
2022/09/27 02:55:18;;;;;;;;;;;9.70;99.90;;;;;;5051382;28;20385;-70
2022/09/27 02:57:55;;;;;;;;;;;9.70;99.90;;;;;;5054166;28;20035;-70
2022/09/27 03:00:22;;;;;;;;;;;9.70;99.90;;;;;;5033673;28;20032;-70
2022/09/27 03:02:47;;;;;;;;;;;9.70;99.90;;;;;;5051671;28;19928;-70
2022/09/27 03:05:19;;;;;;;;;;;9.70;99.90;;;;;;5052568;28;19921;-70
2022/09/27 03:07:45;;;;;;;;;;;9.70;99.90;;;;;;5053806;28;19921;-70
2022/09/27 03:10:18;;;;;;;;;;;9.70;99.90;;;;;;5052642;28;20020;-70
2022/09/27 03:12:43;;;;;;;;;;;9.70;99.90;;;;;;5051726;28;20375;-70
2022/09/27 03:15:09;;;;;;;;;;;9.80;99.90;;;;;;5052934;28;19928;-69
2022/09/27 03:17:35;;;;;;;;;;;9.70;99.90;;;;;;5048892;28;19925;-69
2022/09/27 03:20:00;;;;;;;;;;;9.60;99.90;;;;;;5051010;28;19921;-70
2022/09/27 03:22:26;;;;;;;;;;;9.60;99.90;;;;;;5052999;28;19921;-70
2022/09/27 03:24:52;;;;;;;;;;;9.60;99.90;;;;;;5049486;28;20009;-70
2022/09/27 03:27:17;;;;;;;;;;;9.60;99.90;;;;;;5050585;28;19921;-70
2022/09/27 03:29:43;;;;;;;;;;;9.50;99.90;;;;;;5050691;28;19925;-70
2022/09/27 03:32:09;;;;;;;;;;;9.50;99.90;;;;;;5048545;28;20649;-70
2022/09/27 03:34:34;;;;;;;;;;;9.50;99.90;;;;;;5050519;28;19978;-70
2022/09/27 03:37:00;;;;;;;;;;;9.50;99.90;;;;;;5049586;28;19924;-70
2022/09/27 03:39:26;;;;;;;;;;;9.50;99.90;;;;;;5051024;28;19931;-69
2022/09/27 03:41:52;;;;;;;;;;;9.40;99.90;;;;;;5051624;28;19921;-70
2022/09/27 03:44:17;;;;;;;;;;;9.40;99.90;;;;;;5051728;28;20495;-70
2022/09/27 03:46:42;;;;;;;;;;;9.30;99.90;;;;;;5051820;28;19979;-70
2022/09/27 03:49:08;;;;;;;;;;;9.30;99.90;;;;;;5049323;28;20286;-70
2022/09/27 03:51:33;;;;;;;;;;;9.30;99.90;;;;;;5040193;28;19925;-70
2022/09/27 03:53:59;;;;;;;;;;;9.30;99.90;;;;;;5071134;22;19929;-68
2022/09/27 03:56:24;;;;;;;;;;;9.30;99.90;;;;;;5012081;28;19921;-68
2022/09/27 03:58:50;;;;;;;;;;;9.20;99.90;;;;;;5012839;28;19922;-68
2022/09/27 04:01:15;;;;;;;;;;;9.20;99.90;;;;;;5012174;28;19928;-68
2022/09/27 04:03:41;;;;;;;;;;;9.30;99.90;;;;;;5012479;28;19921;-68
2022/09/27 04:06:06;;;;;;;;;;;9.30;99.90;;;;;;5013646;28;20004;-69
2022/09/27 04:08:32;;;;;;;;;;;9.30;99.90;;;;;;5012841;28;19925;-68
2022/09/27 04:10:57;;;;;;;;;;;9.30;99.90;;;;;;5044255;28;20542;-68
2022/09/27 04:13:23;;;;;;;;;;;9.30;99.90;;;;;;5014497;28;19928;-68
2022/09/27 04:15:49;;;;;;;;;;;9.30;99.90;;;;;;5015021;28;19931;-68
2022/09/27 04:18:14;;;;;;;;;;;9.40;99.90;;;;;;5014345;28;20397;-68
2022/09/27 04:20:40;;;;;;;;;;;9.40;99.90;;;;;;5013639;28;19925;-68
2022/09/27 04:23:05;;;;;;;;;;;9.40;99.90;;;;;;5014567;28;20321;-68
2022/09/27 04:25:34;;;;;;;;;;;9.40;99.90;;;;;;5013155;28;19925;-68
2022/09/27 04:28:00;;;;;;;;;;;9.40;99.90;;;;;;5013183;28;19929;-68
2022/09/27 04:30:26;;;;;;;;;;;9.40;99.90;;;;;;5012976;28;20554;-68
2022/09/27 04:32:52;;;;;;;;;;;9.50;99.90;;;;;;5012425;28;19932;-68
2022/09/27 04:38:01;;;;;;;;;;;9.50;99.90;;;;;;5014375;28;19925;-68
2022/09/27 04:40:27;;;;;;;;;;;9.50;99.90;;;;;;5013964;28;19921;-68
2022/09/27 04:42:52;;;;;;;;;;;9.50;99.90;;;;;;5008208;28;19921;-68
2022/09/27 04:45:18;;;;;;;;;;;9.40;99.90;;;;;;5013879;28;20019;-68
2022/09/27 04:47:44;;;;;;;;;;;9.40;99.90;;;;;;4997033;28;19935;-68
2022/09/27 04:50:10;;;;;;;;;;;9.40;99.90;;;;;;5013675;28;19925;-68
2022/09/27 04:52:36;;;;;;;;;;;9.40;99.90;;;;;;5010585;28;20378;-68
2022/09/27 04:55:01;;;;;;;;;;;9.30;99.90;;;;;;5013038;28;20004;-68
2022/09/27 04:57:27;;;;;;;;;;;9.30;99.90;;;;;;5012056;28;20012;-68
2022/09/27 04:59:52;;;;;;;;;;;9.30;99.90;;;;;;5015368;28;19921;-68
2022/09/27 05:02:18;;;;;;;;;;;9.30;99.90;;;;;;5029309;28;20253;-68
2022/09/27 05:04:43;;;;;;;;;;;9.30;99.90;;;;;;5012800;28;19933;-68
2022/09/27 05:07:09;;;;;;;;;;;9.30;99.90;;;;;;5012411;28;19983;-69
2022/09/27 05:09:34;;;;;;;;;;;9.20;99.90;;;;;;5013029;28;19931;-68
2022/09/27 05:12:00;;;;;;;;;;;9.20;99.90;;;;;;5010240;28;19929;-68
2022/09/27 05:14:25;;;;;;;;;;;9.20;99.90;;;;;;5012935;28;19964;-68
2022/09/27 05:16:52;;;;;;;;;;;9.20;99.90;;;;;;5012874;28;20406;-68
2022/09/27 05:19:17;;;;;;;;;;;9.20;99.90;;;;;;5012995;28;20466;-68
2022/09/27 05:21:42;;;;;;;;;;;9.10;99.90;;;;;;5012557;28;20045;-68
2022/09/27 05:24:08;;;;;;;;;;;9.10;99.90;;;;;;5011443;28;19932;-69
2022/09/27 05:26:33;;;;;;;;;;;9.10;99.90;;;;;;5010202;28;19931;-68
2022/09/27 05:28:59;;;;;;;;;;;9.10;99.90;;;;;;4991921;28;19929;-69
2022/09/27 05:31:25;;;;;;;;;;;9.00;99.90;;;;;;5005165;28;19964;-69
2022/09/27 05:33:51;;;;;;;;;;;9.00;99.90;;;;;;5008916;28;19928;-68
2022/09/27 05:36:16;;;;;;;;;;;9.00;99.90;;;;;;5011059;28;19921;-68
2022/09/27 05:38:42;;;;;;;;;;;9.00;99.90;;;;;;5012462;28;20307;-69
2022/09/27 05:41:08;;;;;;;;;;;9.10;99.90;;;;;;4999810;28;19926;-68
2022/09/27 05:43:35;;;;;;;;;;;9.10;99.90;;;;;;5027176;28;19921;-69
2022/09/27 05:46:00;;;;;;;;;;;9.00;99.90;;;;;;5009925;28;19929;-69
2022/09/27 05:48:29;;;;;;;;;;;9.10;99.90;;;;;;5009522;28;19979;-69
2022/09/27 05:50:54;;;;;;;;;;;9.00;99.90;;;;;;5009591;28;19929;-69
2022/09/27 05:53:20;;;;;;;;;;;9.00;99.90;;;;;;5011431;28;19948;-69
2022/09/27 05:55:45;;;;;;;;;;;9.10;99.90;;;;;;5012109;28;19974;-69
2022/09/27 05:58:15;;;;;;;;;;;9.10;99.90;;;;;;5011247;28;20271;-69
2022/09/27 06:00:41;;;;;;;;;;;9.10;99.90;;;;;;5042468;28;20027;-69
2022/09/27 06:03:06;;;;;;;;;;;9.10;99.90;;;;;;4996136;28;20430;-69
2022/09/27 06:05:36;;;;;;;;;;;9.20;99.90;;;;;;5022149;28;19921;-69
2022/09/27 06:08:04;;;;;;;;;;;9.10;99.90;;;;;;5013098;28;19928;-69
2022/09/27 06:10:30;;;;;;;;;;;9.20;99.90;;;;;;5007852;28;19925;-69
2022/09/27 06:13:01;;;;;;;;;;;9.20;99.90;;;;;;4996869;28;19932;-69
2022/09/27 06:15:27;;;;;;;;;;;9.30;99.90;;;;;;5024856;28;19921;-69
2022/09/27 06:17:53;;;;;;;;;;;9.30;99.90;;;;;;5007790;28;20337;-69
2022/09/27 06:20:19;;;;;;;;;;;9.30;99.90;;;;;;5010068;28;19921;-69
2022/09/27 06:22:45;;;;;;;;;;;9.40;99.90;;;;;;5011844;28;19932;-69
2022/09/27 06:25:11;;;;;;;;;;;9.50;99.90;;;;;;5010689;28;19960;-69
2022/09/27 06:27:36;;;;;;;;;;;9.50;99.90;;;;;;5011011;28;20410;-69
2022/09/27 06:30:02;;;;;;;;;;;9.60;99.90;;;;;;5011416;28;19921;-69
2022/09/27 06:32:28;;;;;;;;;;;9.60;99.90;;;;;;5010233;28;20366;-69
2022/09/27 06:34:53;;;;;;;;;;;9.70;99.90;;;;;;5013319;28;20050;-69
2022/09/27 06:37:18;;;;;;;;;;;9.70;99.90;;;;;;5011307;28;19929;-69
2022/09/27 06:39:44;;;;;;;;;;;9.70;99.90;;;;;;5012693;28;19925;-69
2022/09/27 06:42:10;;;;;;;;;;;9.70;99.90;;;;;;5009523;28;20481;-69
2022/09/27 06:44:35;;;;;;;;;;;9.70;99.90;;;;;;4994462;28;19970;-69
2022/09/27 06:47:01;;;;;;;;;;;9.70;99.90;;;;;;4998978;28;19928;-69
2022/09/27 06:49:26;;;;;;;;;;;9.80;99.90;;;;;;5031436;28;20546;-69
2022/09/27 06:51:52;;;;;;;;;;;9.80;99.90;;;;;;5013184;28;20016;-69
2022/09/27 06:54:18;;;;;;;;;;;9.80;99.90;;;;;;5013157;28;19956;-69
2022/09/27 06:56:45;;;;;;;;;;;9.90;99.90;;;;;;5013225;28;19929;-69
2022/09/27 07:01:55;;;;;;;;;;;10.50;99.90;;;;;;5046317;28;19925;-69
2022/09/27 07:04:21;;;;;;;;;;;10.60;99.90;;;;;;5011119;28;19928;-69
2022/09/27 07:06:46;;;;;;;;;;;10.70;99.90;;;;;;5018166;28;19928;-69
2022/09/27 07:09:13;;;;;;;;;;;10.70;99.90;;;;;;5015209;28;19928;-69
2022/09/27 07:11:39;;;;;;;;;;;10.70;99.90;;;;;;5015695;28;19929;-69
2022/09/27 07:14:05;;;;;;;;;;;11.20;99.90;;;;;;5016149;28;19928;-69
2022/09/27 07:16:33;;;;;;;;;;;11.70;99.90;;;;;;5016179;28;19921;-70
2022/09/27 07:18:59;;;;;;;;;;;11.70;99.90;;;;;;5015982;28;20386;-69
2022/09/27 07:21:24;;;;;;;;;;;11.60;99.90;;;;;;5014610;28;19921;-69
2022/09/27 07:23:50;;;;;;;;;;;11.40;99.90;;;;;;5013840;28;20064;-69
2022/09/27 07:26:15;;;;;;;;;;;11.40;99.90;;;;;;4999539;28;19925;-69
2022/09/27 07:28:41;;;;;;;;;;;11.40;99.90;;;;;;5014304;28;20007;-69
2022/09/27 07:31:07;;;;;;;;;;;11.30;99.90;;;;;;5013384;28;19979;-69
2022/09/27 07:33:33;;;;;;;;;;;11.20;99.90;;;;;;5015864;28;20445;-69
2022/09/27 07:35:59;;;;;;;;;;;11.10;99.90;;;;;;4999562;28;20008;-70
2022/09/27 07:38:24;;;;;;;;;;;11.00;99.90;;;;;;5015724;28;20374;-70
2022/09/27 07:40:50;;;;;;;;;;;11.00;99.90;;;;;;5004955;28;19929;-70
2022/09/27 07:43:16;;;;;;;;;;;10.90;99.90;;;;;;5005371;28;19928;-70
2022/09/27 07:45:42;;;;;;;;;;;10.90;99.90;;;;;;5013020;28;19957;-70
2022/09/27 07:48:09;;;;;;;;;;;10.90;99.90;;;;;;5006305;28;20394;-70
2022/09/27 07:50:35;;;;;;;;;;;10.80;99.90;;;;;;5032419;28;19925;-70
2022/09/27 07:53:00;;;;;;;;;;;10.90;99.90;;;;;;5014092;28;20343;-71
2022/09/27 07:55:26;;;;;;;;;;;11.00;99.90;;;;;;5014153;28;19929;-70
2022/09/27 07:57:52;;;;;;;;;;;11.10;99.90;;;;;;5020743;28;19925;-70
2022/09/27 08:00:21;;;;;;;;;;;11.20;99.90;;;;;;4980528;28;19925;-70
2022/09/27 08:02:46;;;;;;;;;;;11.30;99.90;;;;;;5010817;28;20282;-69
2022/09/27 08:05:12;;;;;;;;;;;11.40;99.90;;;;;;5032772;28;19928;-70
2022/09/27 08:07:38;;;;;;;;;;;11.50;99.90;;;;;;5014571;28;19921;-70
2022/09/27 08:10:04;;;;;;;;;;;11.60;99.90;;;;;;5014740;28;19925;-69
2022/09/27 08:12:30;;;;;;;;;;;11.80;99.90;;;;;;5019411;28;21409;-69
2022/09/27 08:15:00;;;;;;;;;;;11.90;99.90;;;;;;5029776;28;19928;-69
2022/09/27 08:17:29;;;;;;;;;;;12.00;99.90;;;;;;5011261;28;19925;-69
2022/09/27 08:19:54;;;;;;;;;;;12.10;99.90;;;;;;5007629;28;20022;-70
2022/09/27 08:22:20;;;;;;;;;;;12.00;99.90;;;;;;5008433;28;20070;-70
2022/09/27 08:24:46;;;;;;;;;;;12.00;99.90;;;;;;5008713;28;19928;-70
2022/09/27 08:27:11;;;;;;;;;;;11.90;99.90;;;;;;5010811;28;20409;-70
2022/09/27 08:29:40;;;;;;;;;;;12.00;99.90;;;;;;5009434;28;19925;-69
2022/09/27 08:32:06;;;;;;;;;;;12.00;99.90;;;;;;5006805;28;20453;-69
2022/09/27 08:34:32;;;;;;;;;;;12.00;99.90;;;;;;5004465;28;19928;-69
2022/09/27 08:36:58;;;;;;;;;;;12.10;99.90;;;;;;5005901;28;20012;-70
2022/09/27 08:39:23;;;;;;;;;;;12.10;99.90;;;;;;5010212;28;19932;-69
2022/09/27 08:42:08;;;;;;;;;;;12.10;99.90;;;;;;4995290;28;19925;-69
2022/09/27 08:44:34;;;;;;;;;;;12.10;99.90;;;;;;5002747;28;20397;-70
2022/09/27 08:47:02;;;;;;;;;;;12.20;99.90;;;;;;5027689;28;19929;-69
2022/09/27 08:49:34;;;;;;;;;;;12.30;99.90;;;;;;5010327;28;19971;-70
2022/09/27 08:51:59;;;;;;;;;;;12.40;99.90;;;;;;5004181;28;20160;-70
2022/09/27 08:54:28;;;;;;;;;;;12.60;99.90;;;;;;4997110;28;19974;-70
2022/09/27 08:56:59;;;;;;;;;;;12.60;99.90;;;;;;5007808;28;19929;-70
2022/09/27 08:59:27;;;;;;;;;;;12.70;99.90;;;;;;5012130;28;19979;-71
2022/09/27 09:01:53;;;;;;;;;;;12.90;99.90;;;;;;5009890;28;20357;-70
2022/09/27 09:04:24;;;;;;;;;;;13.00;99.90;;;;;;5011435;28;20289;-70
2022/09/27 09:07:08;;;;;;;;;;;13.20;99.90;;;;;;5013801;28;19932;-70
2022/09/27 09:09:43;;;;;;;;;;;13.30;99.90;;;;;;5000943;28;19926;-70
2022/09/27 09:15:20;;;;;;;;;;;13.60;99.90;;;;;;5007021;28;20379;-70
2022/09/27 09:17:45;;;;;;;;;;;13.60;99.90;;;;;;5011601;28;19928;-70
2022/09/27 09:20:21;;;;;;;;;;;13.70;99.90;;;;;;5009851;28;19921;-70
2022/09/27 09:23:04;;;;;;;;;;;13.80;99.90;;;;;;5003879;28;19921;-70
2022/09/27 09:25:35;;;;;;;;;;;13.80;99.90;;;;;;5008929;28;19964;-70
2022/09/27 09:28:10;;;;;;;;;;;13.80;99.90;;;;;;5010462;28;20012;-68
2022/09/27 09:30:35;;;;;;;;;;;13.90;99.90;;;;;;5006599;28;20080;-70
2022/09/27 09:33:04;;;;;;;;;;;13.90;99.90;;;;;;5011369;28;20453;-75
2022/09/27 09:35:34;;;;;;;;;;;14.00;99.90;;;;;;5004764;28;20386;-70
2022/09/27 09:38:02;;;;;;;;;;;14.00;99.90;;;;;;4990028;28;19929;-70
2022/09/27 09:41:00;;;;;;;;;;;14.10;99.90;;;;;;5010612;28;20015;-70
2022/09/27 09:43:29;;;;;;;;;;;14.20;99.90;;;;;;4989930;28;20262;-70
2022/09/27 09:46:00;;;;;;;;;;;14.20;99.90;;;;;;5010756;28;19986;-70
2022/09/27 09:48:32;;;;;;;;;;;14.30;99.90;;;;;;5008694;28;19975;-70
2022/09/27 09:51:00;;;;;;;;;;;14.30;99.90;;;;;;5009064;28;19925;-70
2022/09/27 09:53:31;;;;;;;;;;;14.40;99.90;;;;;;5022828;28;20011;-70
2022/09/27 09:56:02;;;;;;;;;;;14.40;99.90;;;;;;5031016;28;19935;-70
2022/09/27 09:58:38;;;;;;;;;;;14.50;99.90;;;;;;5011331;28;19925;-70
2022/09/27 10:01:17;;;;;;;;;;;14.60;99.90;;;;;;5012934;28;19921;-70
2022/09/27 10:03:43;;;;;;;;;;;14.70;99.90;;;;;;5013077;28;19925;-70
2022/09/27 10:06:10;;;;;;;;;;;14.90;99.90;;;;;;5013479;28;19921;-70
2022/09/27 10:08:35;;;;;;;;;;;15.00;99.90;;;;;;5010438;28;19935;-70
2022/09/27 10:11:01;;;;;;;;;;;;;;;;;;5012651;28;20640;-70
2022/09/27 10:13:29;;;;;;;;;;;14.90;99.90;;;;;;5042102;28;20043;-70
2022/09/27 10:16:01;;;;;;;;;;;14.40;99.90;;;;;;5010891;28;19929;-70
2022/09/27 10:18:28;;;;;;;;;;;13.20;99.90;;;;;;5014968;28;19920;-70
2022/09/27 10:20:56;;;;;;;;;;;13.20;99.90;;;;;;5003406;28;20541;-70
2022/09/27 10:23:23;;;;;;;;;;;13.00;99.90;;;;;;5013309;28;19980;-70
2022/09/27 10:25:57;;;;;;;;;;;12.50;99.90;;;;;;5012230;28;20385;-71
2022/09/27 10:28:37;;;;;;;;;;;12.50;99.90;;;;;;5010234;28;20382;-71
2022/09/27 10:31:04;;;;;;;;;;;12.40;99.90;;;;;;5005060;28;20307;-71
2022/09/27 10:33:30;;;;;;;;;;;12.20;99.90;;;;;;5010856;28;19932;-71
2022/09/27 10:35:56;;;;;;;;;;;12.10;99.90;;;;;;5013217;28;19921;-71
2022/09/27 10:38:23;;;;;;;;;;;12.00;99.90;;;;;;5012364;28;19925;-70
2022/09/27 10:40:49;;;;;;;;;;;11.90;99.90;;;;;;5012025;28;20003;-71
2022/09/27 10:43:29;;;;;;;;;;;11.90;99.90;;;;;;5012196;28;20012;-70
2022/09/27 10:46:13;;;;;;;;;;;11.90;99.90;;;;;;4999121;28;19925;-70
2022/09/27 10:48:40;;;;;;;;;;;12.00;99.90;;;;;;5013905;28;20019;-70
2022/09/27 10:51:18;;;;;;;;;;;12.10;99.90;;;;;;5016680;28;19928;-70
2022/09/27 10:53:45;;;;;;;;;;;12.00;99.90;;;;;;5013160;28;19940;-70
2022/09/27 10:56:21;;;;;;;;;;;12.20;99.90;;;;;;5016017;28;19924;-70
2022/09/27 10:58:47;;;;;;;;;;;12.30;99.90;;;;;;5012958;28;20016;-70
2022/09/27 11:01:12;;;;;;;;;;;12.40;99.90;;;;;;5014234;28;20357;-70
2022/09/27 11:03:47;;;;;;;;;;;12.50;99.90;;;;;;5015029;28;20271;-70
2022/09/27 11:06:21;;;;;;;;;;;12.80;99.90;;;;;;5016966;28;19921;-70
2022/09/27 11:08:49;;;;;;;;;;;12.90;99.90;;;;;;5013813;28;19932;-70
2022/09/27 11:11:20;;;;;;;;;;;13.10;99.90;;;;;;5011139;28;19932;-70
2022/09/27 11:14:03;;;;;;;;;;;13.20;99.90;;;;;;5023362;28;19921;-70
2022/09/27 11:16:35;;;;;;;;;;;13.20;99.90;;;;;;5009693;28;19921;-70
2022/09/27 11:19:20;;;;;;;;;;;13.30;99.90;;;;;;5015154;28;19925;-70
2022/09/27 11:22:00;;;;;;;;;;;13.40;99.90;;;;;;5014635;28;19927;-70
2022/09/27 11:24:42;;;;;;;;;;;13.20;99.90;;;;;;5004139;28;19921;-71
2022/09/27 11:27:14;;;;;;;;;;;13.10;99.90;;;;;;5015089;28;20425;-71
2022/09/27 11:29:53;;;;;;;;;;;13.00;99.90;;;;;;5009984;28;20597;-71
2022/09/27 11:32:40;;;;;;;;;;;12.70;99.90;;;;;;5046845;28;19929;-71
2022/09/27 11:35:25;;;;;;;;;;;12.40;99.90;;;;;;5010247;28;20321;-70
2022/09/27 11:38:09;;;;;;;;;;;12.10;99.90;;;;;;5007355;28;20000;-70
2022/09/27 11:40:56;;;;;;;;;;;12.00;99.90;;;;;;5004278;28;20330;-70
2022/09/27 11:43:22;;;;;;;;;;;11.90;99.90;;;;;;5013039;28;19963;-71
2022/09/27 11:46:06;;;;;;;;;;;11.90;99.90;;;;;;5012981;28;19979;-70
2022/09/27 11:48:49;;;;;;;;;;;12.00;99.90;;;;;;5010330;28;19921;-71
2022/09/27 11:51:23;;;;;;;;;;;12.20;99.90;;;;;;4996927;28;19986;-71
2022/09/27 11:53:59;;;;;;;;;;;12.50;99.90;;;;;;5010039;28;19925;-70
2022/09/27 11:56:30;;;;;;;;;;;12.90;99.90;;;;;;5004182;28;19932;-71
2022/09/27 11:59:12;;;;;;;;;;;13.20;99.90;;;;;;5004270;28;19925;-70
2022/09/27 12:01:37;;;;;;;;;;;13.40;99.90;;;;;;5007736;28;19928;-71
2022/09/27 12:04:25;;;;;;;;;;;13.80;99.90;;;;;;5010515;28;19922;-70
2022/09/27 12:07:14;;;;;;;;;;;14.10;99.90;;;;;;5041615;28;20298;-70
2022/09/27 12:09:42;;;;;;;;;;;14.30;99.90;;;;;;5008120;28;19921;-71
2022/09/27 12:12:19;;;;;;;;;;;14.30;99.90;;;;;;5006964;28;20036;-70
2022/09/27 12:15:04;;;;;;;;;;;14.30;99.90;;;;;;5007181;28;20390;-70
2022/09/27 12:17:35;;;;;;;;;;;14.50;99.90;;;;;;5006252;28;20016;-70
2022/09/27 12:20:17;;;;;;;;;;;14.40;99.90;;;;;;5002756;28;20010;-70
2022/09/27 12:22:52;;;;;;;;;;;14.40;99.90;;;;;;5009898;28;19929;-70
2022/09/27 12:25:18;;;;;;;;;;;14.40;99.90;;;;;;5007567;28;20406;-70
2022/09/27 12:28:04;;;;;;;;;;;14.40;99.90;;;;;;5008307;28;19925;-70
2022/09/27 12:30:31;;;;;;;;;;;14.30;99.90;;;;;;4978514;28;20012;-70
2022/09/27 12:33:09;;;;;;;;;;;14.20;99.90;;;;;;5002574;28;19975;-70
2022/09/27 12:35:40;;;;;;;;;;;13.80;99.90;;;;;;5011430;28;20431;-70
2022/09/27 12:38:13;;;;;;;;;;;13.80;99.90;;;;;;5011513;28;19968;-69
2022/09/27 12:40:40;;;;;;;;;;;13.70;99.90;;;;;;5015256;28;20389;-69
2022/09/27 12:43:22;;;;;;;;;;;13.50;99.90;;;;;;5015746;28;20279;-69
2022/09/27 12:45:51;;;;;;;;;;;13.50;99.90;;;;;;5014333;28;19935;-69
2022/09/27 12:48:22;;;;;;;;;;;13.50;99.90;;;;;;5014563;28;19924;-69
2022/09/27 12:51:03;;;;;;;;;;;13.40;99.90;;;;;;5006219;28;19968;-69
2022/09/27 12:53:36;;;;;;;;;;;13.40;99.90;;;;;;4997156;28;19933;-69
2022/09/27 12:56:15;;;;;;;;;;;13.50;99.90;;;;;;5014095;28;19929;-69
2022/09/27 12:58:58;;;;;;;;;;;13.50;99.90;;;;;;5013053;28;20012;-69
2022/09/27 13:01:39;;;;;;;;;;;13.50;99.90;;;;;;5011649;28;19956;-69
2022/09/27 13:04:20;;;;;;;;;;;13.40;99.90;;;;;;5014858;28;19928;-70
2022/09/27 13:06:49;;;;;;;;;;;13.30;99.90;;;;;;5014950;28;19928;-70
2022/09/27 13:09:23;;;;;;;;;;;13.10;99.90;;;;;;5014328;28;19925;-70
2022/09/27 13:11:48;;;;;;;;;;;12.90;99.90;;;;;;5014823;28;20002;-70
2022/09/27 13:14:19;;;;;;;;;;;12.80;99.90;;;;;;5014241;28;20409;-70
2022/09/27 13:16:46;;;;;;;;;;;12.80;99.90;;;;;;5013428;28;20278;-70
2022/09/27 13:19:36;;;;;;;;;;;12.80;99.90;;;;;;5013696;28;19921;-70
2022/09/27 13:22:03;;;;;;;;;;;12.90;99.90;;;;;;4995376;28;20564;-69
2022/09/27 13:24:42;;;;;;;;;;;12.90;99.90;;;;;;5009474;28;19928;-70
2022/09/27 13:27:33;;;;;;;;;;;13.00;99.90;;;;;;5013078;28;19921;-70
2022/09/27 13:30:08;;;;;;;;;;;13.10;99.90;;;;;;5012065;28;19960;-67
2022/09/27 13:32:35;;;;;;;;;;;13.20;99.90;;;;;;5013285;28;19971;-67
2022/09/27 13:35:30;;;;;;;;;;;13.30;99.90;;;;;;5030039;28;20338;-67
2022/09/27 13:37:58;;;;;;;;;;;13.40;99.90;;;;;;5012963;28;20390;-67
2022/09/27 13:40:26;;;;;;;;;;;13.40;99.90;;;;;;5008111;28;20297;-67
2022/09/27 13:43:02;;;;;;;;;;;13.50;99.90;;;;;;4993549;28;20015;-68
2022/09/27 13:45:34;;;;;;;;;;;13.50;99.90;;;;;;5012171;28;19921;-66
2022/09/27 13:48:00;;;;;;;;;;;13.60;99.90;;;;;;5020721;28;19929;-67
2022/09/27 13:50:46;;;;;;;;;;;13.60;99.90;;;;;;5012685;28;19976;-67
2022/09/27 13:53:24;;;;;;;;;;;13.60;99.90;;;;;;5003581;28;19922;-67
2022/09/27 13:55:50;;;;;;;;;;;13.60;99.90;;;;;;5012210;28;20397;-67
2022/09/27 13:58:39;;;;;;;;;;;13.00;99.90;;;;;;5001302;28;19921;-67
2022/09/27 14:01:15;;;;;;;;;;;12.90;99.90;;;;;;5010846;28;19995;-67
2022/09/27 14:03:42;;;;;;;;;;;12.60;99.90;;;;;;5027438;28;19925;-67
2022/09/27 14:06:12;;;;;;;;;;;12.30;99.90;;;;;;5010218;28;19925;-67
2022/09/27 14:08:49;;;;;;;;;;;12.00;99.90;;;;;;5013166;28;19927;-67
2022/09/27 14:11:18;;;;;;;;;;;11.80;99.90;;;;;;5017230;28;19928;-67
2022/09/27 14:13:45;;;;;;;;;;;11.60;99.90;;;;;;5010439;28;19925;-67
2022/09/27 14:16:14;;;;;;;;;;;11.50;99.90;;;;;;5023969;28;19968;-67
2022/09/27 14:18:49;;;;;;;;;;;11.40;99.90;;;;;;5012746;28;20019;-67
2022/09/27 14:21:14;;;;;;;;;;;11.30;99.90;;;;;;5006953;28;19929;-67
2022/09/27 14:23:40;;;;;;;;;;;11.20;99.90;;;;;;4997499;28;19933;-67
2022/09/27 14:26:18;;;;;;;;;;;11.20;99.90;;;;;;5005589;28;19932;-67
2022/09/27 14:28:44;;;;;;;;;;;11.20;99.90;;;;;;4995585;28;19929;-67
2022/09/27 14:31:09;;;;;;;;;;;11.20;99.90;;;;;;5012769;28;20286;-67
2022/09/27 14:33:35;;;;;;;;;;;11.20;99.90;;;;;;5038735;28;19921;-67
2022/09/27 14:38:47;;;;;;;;;;;11.20;99.90;;;;;;5028606;28;19925;-67
2022/09/27 14:41:14;;;;;;;;;;;11.30;99.90;;;;;;5010723;28;19964;-67
2022/09/27 14:43:45;;;;;;;;;;;11.30;99.90;;;;;;5011589;28;19928;-67
2022/09/27 14:46:27;;;;;;;;;;;11.40;99.90;;;;;;5041796;28;20477;-67
2022/09/27 14:48:52;;;;;;;;;;;11.40;99.90;;;;;;5005741;28;19925;-67